Webcam Flughafen St.Gallen-Altenrhein

Live-Bilder und Zeitraffer LSZR / ACH.

 

Live aus Altenrhein
LIVE
LSZR 191550Z VRB02KT 5000 NSC 19/15 Q1017 NOSIG RMK L
Zeitraffer heute
2020-09-19 00:14:15
LSZR 182150Z AUTO VRB01KT 5000 NCD 15/14 Q1021